Currently 43°F in Wildomar, California, USA
43°F
49°F / 43°F
calm
0.00"
Monday, March 25, 2019 7:12 AM PDT

Wildomar, California Weather Summary
Last 36 Hours

Temperature Winds Hourly Humidity Dewpoint
Time Report Norm Report Norm Max Gusts Precip. Rpt. Norm Rpt. Norm Pressure
1Mon 07:12 AM  42.8°F  46°F  calm  calm  none  0.00"  98%  89%  42°F  43°F  N/A
3Mon 07:10 AM  42.7°F  46°F  calm  calm  none  ----  98%  89%  42°F  43°F  N/A
Mon 07:00 AM  42.9°F  46°F  calm  calm  none  0.00"  98%  89%  42°F  43°F  N/A
Mon 06:00 AM  43.5°F  47°F  calm  calm  none  0.00"  97%  88%  43°F  43°F  N/A
Mon 05:00 AM  44.8°F  47°F  calm  calm  none  0.00"  96%  87%  44°F  44°F  N/A
Mon 04:00 AM  44.3°F  48°F  calm  calm  none  0.00"  96%  86%  43°F  44°F  N/A
Mon 03:00 AM  44.8°F  48°F  calm  calm  none  0.00"  96%  85%  44°F  44°F  N/A
Mon 02:00 AM  46.3°F  49°F  calm  calm  none  0.00"  95%  84%  45°F  44°F  N/A
Mon 01:00 AM  47.4°F  49°F  calm  calm  none  0.00"  93%  82%  46°F  44°F  N/A
2Mon 12:01 AM  49.0°F  51°F  calm  calm  none  ----  92%  80%  47°F  45°F  N/A
Mon 12:00 AM  49.0°F  51°F  calm  calm  none  0.00"  92%  80%  47°F  45°F  N/A
Sun 11:00 PM  50.5°F  52°F  calm  calm  none  0.00"  88%  78%  47°F  45°F  N/A
Sun 10:00 PM  0.0°F  54°F  calm  calm  none  0.00"  85%  75%  -4°F  46°F  N/A
Sun 09:00 PM  0.0°F  56°F  calm  1 mph  none  0.00"  80%  70%  -5°F  46°F  N/A
Sun 08:00 PM  58.8°F  59°F  calm  1 mph  none  0.00"  68%  63%  48°F  46°F  N/A
Sun 07:00 PM  64.8°F  64°F  calm  2 mph  4 mph  0.00"  53%  54%  46°F  46°F  N/A
Sun 06:00 PM  70.7°F  68°F  calm  4 mph  6 mph  0.00"  44%  45%  47°F  45°F  N/A
Sun 05:00 PM  73.0°F  72°F  1 mph S  4 mph  8 mph  0.00"  38%  40%  45°F  45°F  N/A
Sun 04:00 PM  73.8°F  73°F  3 mph S  4 mph  9 mph  0.00"  38%  37%  46°F  44°F  N/A
Sun 03:00 PM  72.3°F  73°F  calm  3 mph  10 mph  0.00"  45%  37%  49°F  44°F  N/A
Sun 02:00 PM  69.1°F  73°F  1 mph S  3 mph  10 mph  0.00"  50%  38%  49°F  45°F  N/A
Sun 01:00 PM  66.2°F  71°F  4 mph S  3 mph  9 mph  0.00"  53%  40%  48°F  45°F  N/A
Sun 12:00 PM  63.5°F  68°F  2 mph S  2 mph  9 mph  0.00"  57%  45%  48°F  45°F  N/A
Sun 11:00 AM  60.7°F  65°F  calm  2 mph  4 mph  0.00"  72%  53%  51°F  47°F  N/A
Sun 10:00 AM  54.6°F  60°F  calm  1 mph  4 mph  0.00"  96%  63%  54°F  47°F  N/A
Sun 09:00 AM  49.8°F  55°F  calm  1 mph  none  0.00"  98%  77%  49°F  47°F  N/A
Sun 08:00 AM  45.5°F  48°F  calm  calm  none  0.00"  99%  89%  45°F  45°F  N/A
Sun 07:00 AM  41.8°F  46°F  calm  calm  none  0.00"  98%  89%  41°F  43°F  N/A
Sun 06:00 AM  44.0°F  47°F  calm  calm  none  0.00"  98%  88%  43°F  43°F  N/A
Sun 05:00 AM  44.2°F  47°F  calm  calm  none  0.00"  98%  88%  44°F  44°F  N/A
Sun 04:00 AM  43.4°F  48°F  calm  calm  none  0.00"  97%  87%  42°F  44°F  N/A
Sun 03:00 AM  43.5°F  48°F  calm  calm  none  0.00"  96%  86%  42°F  43°F  N/A
Sun 02:00 AM  44.8°F  49°F  calm  calm  none  0.00"  96%  84%  44°F  44°F  N/A
Sun 01:00 AM  0.0°F  49°F  calm  calm  none  0.00"  95%  83%  -1°F  44°F  N/A
Sun 12:00 AM  0.0°F  51°F  calm  calm  none  0.00"  94%  80%  -1°F  45°F  N/A
Sat 11:00 PM  0.0°F  52°F  calm  calm  none  0.00"  92%  78%  -2°F  45°F  N/A
Sat 10:00 PM  0.0°F  54°F  calm  calm  3 mph  0.00"  88%  75%  -3°F  46°F  N/A
Sat 09:00 PM  0.0°F  56°F  calm  1 mph  3 mph  0.00"  82%  71%  -4°F  46°F  N/A
Sat 08:00 PM  0.0°F  58°F  calm  1 mph  5 mph  0.00"  78%  63%  -6°F  45°F  N/A

  1. Current weather data. No green row appears if the current weather data is also the high or low for the current day.
  2. High temperature for the current day.
  3. Low temperature for the current day.

The Wildomar, California weather pages are a service of WeatherCurrents. Wildomar is located southwestern Riverside County, California, north of Murrieta and south of Lake Elsinore.
Copyright ©Mon Mar 25 07:13:32 PDT 2019  WeatherCurrents. All rights reserved. - Submit questions and comments - Privacy Policy

This page automatically refreshes every 10 minutes.